sensor_id;sensor_type;location;lat;lon;timestamp;pressure;altitude;pressure_sealevel;temperature;humidity
23339;BME280;11841;49.368;20.962;2023-05-24T00:01:15;95434.53;;;15.32;100.00
23339;BME280;11841;49.368;20.962;2023-05-24T00:04:09;95430.78;;;15.33;100.00
23339;BME280;11841;49.368;20.962;2023-05-24T00:06:55;95427.28;;;15.32;100.00
23339;BME280;11841;49.368;20.962;2023-05-24T00:09:41;95430.72;;;15.28;100.00
23339;BME280;11841;49.368;20.962;2023-05-24T00:12:26;95428.78;;;15.18;100.00
23339;BME280;11841;49.368;20.962;2023-05-24T00:15:12;95427.44;;;15.21;100.00
23339;BME280;11841;49.368;20.962;2023-05-24T00:17:57;95439.50;;;15.23;100.00
23339;BME280;11841;49.368;20.962;2023-05-24T00:20:43;95442.19;;;15.23;100.00
23339;BME280;11841;49.368;20.962;2023-05-24T00:23:29;95435.50;;;15.26;100.00
23339;BME280;11841;49.368;20.962;2023-05-24T00:26:15;95433.59;;;15.21;100.00
23339;BME280;11841;49.368;20.962;2023-05-24T00:29:00;95425.03;;;15.19;100.00
23339;BME280;11841;49.368;20.962;2023-05-24T00:31:45;95438.94;;;15.21;100.00
23339;BME280;11841;49.368;20.962;2023-05-24T00:34:30;95437.00;;;15.12;100.00
23339;BME280;11841;49.368;20.962;2023-05-24T00:37:16;95445.00;;;15.12;100.00
23339;BME280;11841;49.368;20.962;2023-05-24T00:40:02;95433.81;;;15.15;100.00
23339;BME280;11841;49.368;20.962;2023-05-24T00:42:49;95438.63;;;15.18;100.00
23339;BME280;11841;49.368;20.962;2023-05-24T00:45:34;95442.69;;;15.20;100.00
23339;BME280;11841;49.368;20.962;2023-05-24T00:48:19;95443.16;;;15.17;100.00
23339;BME280;11841;49.368;20.962;2023-05-24T00:51:06;95438.34;;;15.14;100.00
23339;BME280;11841;49.368;20.962;2023-05-24T00:53:52;95436.44;;;15.10;100.00
23339;BME280;11841;49.368;20.962;2023-05-24T00:56:37;95431.66;;;15.12;100.00
23339;BME280;11841;49.368;20.962;2023-05-24T00:59:23;95437.47;;;15.09;100.00
23339;BME280;11841;49.368;20.962;2023-05-24T01:02:08;95440.66;;;15.06;100.00
23339;BME280;11841;49.368;20.962;2023-05-24T01:04:53;95436.31;;;15.00;100.00
23339;BME280;11841;49.368;20.962;2023-05-24T01:07:56;95436.78;;;14.97;100.00
23339;BME280;11841;49.368;20.962;2023-05-24T01:10:51;95443.66;;;14.88;100.00
23339;BME280;11841;49.368;20.962;2023-05-24T01:14:17;95435.34;;;14.84;100.00
23339;BME280;11841;49.368;20.962;2023-05-24T01:17:12;95437.19;;;14.84;100.00
23339;BME280;11841;49.368;20.962;2023-05-24T01:20:04;95433.91;;;14.77;100.00
23339;BME280;11841;49.368;20.962;2023-05-24T01:23:03;95430.97;;;14.78;100.00
23339;BME280;11841;49.368;20.962;2023-05-24T01:26:06;95423.28;;;14.82;100.00
23339;BME280;11841;49.368;20.962;2023-05-24T01:28:54;95431.28;;;14.82;100.00
23339;BME280;11841;49.368;20.962;2023-05-24T01:31:40;95424.16;;;14.87;100.00
23339;BME280;11841;49.368;20.962;2023-05-24T01:34:26;95428.72;;;14.92;100.00
23339;BME280;11841;49.368;20.962;2023-05-24T01:37:12;95426.06;;;14.92;100.00
23339;BME280;11841;49.368;20.962;2023-05-24T01:39:57;95432.97;;;14.88;100.00
23339;BME280;11841;49.368;20.962;2023-05-24T01:42:48;95426.00;;;14.87;100.00
23339;BME280;11841;49.368;20.962;2023-05-24T01:49:05;95432.97;;;14.88;100.00
23339;BME280;11841;49.368;20.962;2023-05-24T01:51:58;95431.84;;;14.84;100.00
23339;BME280;11841;49.368;20.962;2023-05-24T01:54:47;95426.91;;;14.71;100.00
23339;BME280;11841;49.368;20.962;2023-05-24T01:57:37;95440.00;;;14.72;100.00
23339;BME280;11841;49.368;20.962;2023-05-24T02:00:25;95439.94;;;14.67;100.00
23339;BME280;11841;49.368;20.962;2023-05-24T02:03:13;95443.41;;;14.68;100.00
23339;BME280;11841;49.368;20.962;2023-05-24T02:05:58;95446.56;;;14.65;100.00
23339;BME280;11841;49.368;20.962;2023-05-24T02:08:44;95448.19;;;14.66;100.00
23339;BME280;11841;49.368;20.962;2023-05-24T02:11:30;95451.94;;;14.70;100.00
23339;BME280;11841;49.368;20.962;2023-05-24T02:14:16;95455.06;;;14.62;100.00
23339;BME280;11841;49.368;20.962;2023-05-24T02:17:04;95442.47;;;14.57;100.00
23339;BME280;11841;49.368;20.962;2023-05-24T02:19:50;95446.44;;;14.54;100.00
23339;BME280;11841;49.368;20.962;2023-05-24T02:22:35;95450.09;;;14.48;100.00
23339;BME280;11841;49.368;20.962;2023-05-24T02:25:20;95451.25;;;14.36;100.00
23339;BME280;11841;49.368;20.962;2023-05-24T02:28:05;95456.75;;;14.29;100.00
23339;BME280;11841;49.368;20.962;2023-05-24T02:30:51;95454.66;;;14.31;100.00
23339;BME280;11841;49.368;20.962;2023-05-24T02:33:36;95450.47;;;14.35;100.00
23339;BME280;11841;49.368;20.962;2023-05-24T02:36:22;95459.50;;;14.34;100.00
23339;BME280;11841;49.368;20.962;2023-05-24T02:39:07;95459.31;;;14.41;100.00
23339;BME280;11841;49.368;20.962;2023-05-24T02:41:53;95455.19;;;14.50;100.00
23339;BME280;11841;49.368;20.962;2023-05-24T02:44:38;95461.41;;;14.56;100.00
23339;BME280;11841;49.368;20.962;2023-05-24T02:47:23;95454.25;;;14.61;100.00
23339;BME280;11841;49.368;20.962;2023-05-24T02:50:11;95460.97;;;14.64;100.00
23339;BME280;11841;49.368;20.962;2023-05-24T02:52:56;95458.03;;;14.65;100.00
23339;BME280;11841;49.368;20.962;2023-05-24T02:55:42;95454.31;;;14.66;100.00
23339;BME280;11841;49.368;20.962;2023-05-24T02:58:28;95454.31;;;14.66;100.00
23339;BME280;11841;49.368;20.962;2023-05-24T03:01:14;95466.53;;;14.62;100.00
23339;BME280;11841;49.368;20.962;2023-05-24T03:04:00;95464.47;;;14.47;100.00
23339;BME280;11841;49.368;20.962;2023-05-24T03:06:45;95456.91;;;14.39;100.00
23339;BME280;11841;49.368;20.962;2023-05-24T03:09:31;95459.06;;;14.42;100.00
23339;BME280;11841;49.368;20.962;2023-05-24T03:12:16;95457.28;;;14.48;100.00
23339;BME280;11841;49.368;20.962;2023-05-24T03:15:02;95463.50;;;14.53;100.00
23339;BME280;11841;49.368;20.962;2023-05-24T03:17:47;95464.63;;;14.58;100.00
23339;BME280;11841;49.368;20.962;2023-05-24T03:20:32;95460.91;;;14.59;100.00
23339;BME280;11841;49.368;20.962;2023-05-24T03:23:18;95464.06;;;14.56;100.00
23339;BME280;11841;49.368;20.962;2023-05-24T03:26:03;95466.16;;;14.53;100.00
23339;BME280;11841;49.368;20.962;2023-05-24T03:28:48;95468.34;;;14.57;100.00
23339;BME280;11841;49.368;20.962;2023-05-24T03:31:38;95466.22;;;14.59;100.00
23339;BME280;11841;49.368;20.962;2023-05-24T03:34:23;95466.91;;;14.49;100.00
23339;BME280;11841;49.368;20.962;2023-05-24T03:37:09;95462.88;;;14.46;100.00
23339;BME280;11841;49.368;20.962;2023-05-24T03:39:54;95472.41;;;14.42;100.00
23339;BME280;11841;49.368;20.962;2023-05-24T03:42:40;95468.06;;;14.36;100.00
23339;BME280;11841;49.368;20.962;2023-05-24T03:45:25;95473.09;;;14.33;100.00
23339;BME280;11841;49.368;20.962;2023-05-24T03:48:23;95471.63;;;14.25;100.00
23339;BME280;11841;49.368;20.962;2023-05-24T03:51:08;95481.31;;;14.15;100.00
23339;BME280;11841;49.368;20.962;2023-05-24T03:53:57;95483.59;;;14.06;100.00
23339;BME280;11841;49.368;20.962;2023-05-24T03:56:43;95485.94;;;14.03;100.00
23339;BME280;11841;49.368;20.962;2023-05-24T03:59:28;95483.75;;;14.00;100.00
23339;BME280;11841;49.368;20.962;2023-05-24T04:02:15;95484.53;;;14.00;100.00
23339;BME280;11841;49.368;20.962;2023-05-24T04:05:00;95484.06;;;14.03;100.00
23339;BME280;11841;49.368;20.962;2023-05-24T04:07:45;95487.03;;;14.07;100.00
23339;BME280;11841;49.368;20.962;2023-05-24T04:10:30;95491.66;;;14.11;100.00
23339;BME280;11841;49.368;20.962;2023-05-24T04:13:16;95492.84;;;14.20;100.00
23339;BME280;11841;49.368;20.962;2023-05-24T04:16:01;95490.75;;;14.22;100.00
23339;BME280;11841;49.368;20.962;2023-05-24T04:18:47;95499.31;;;14.24;100.00
23339;BME280;11841;49.368;20.962;2023-05-24T04:21:33;95494.47;;;14.21;100.00
23339;BME280;11841;49.368;20.962;2023-05-24T04:24:20;95493.84;;;14.14;100.00
23339;BME280;11841;49.368;20.962;2023-05-24T04:27:06;95494.91;;;14.13;100.00
23339;BME280;11841;49.368;20.962;2023-05-24T04:29:52;95503.44;;;14.15;100.00
23339;BME280;11841;49.368;20.962;2023-05-24T04:32:37;95505.84;;;14.17;100.00
23339;BME280;11841;49.368;20.962;2023-05-24T04:35:24;95503.50;;;14.20;100.00
23339;BME280;11841;49.368;20.962;2023-05-24T04:38:10;95512.66;;;14.24;100.00
23339;BME280;11841;49.368;20.962;2023-05-24T04:41:00;95512.19;;;14.27;100.00
23339;BME280;11841;49.368;20.962;2023-05-24T04:43:45;95515.50;;;14.34;100.00
23339;BME280;11841;49.368;20.962;2023-05-24T04:46:30;95515.91;;;14.43;100.00
23339;BME280;11841;49.368;20.962;2023-05-24T04:49:16;95509.22;;;14.40;100.00
23339;BME280;11841;49.368;20.962;2023-05-24T04:52:01;95508.00;;;14.31;100.00
23339;BME280;11841;49.368;20.962;2023-05-24T04:54:47;95519.16;;;14.28;100.00
23339;BME280;11841;49.368;20.962;2023-05-24T04:57:33;95514.28;;;14.25;100.00
23339;BME280;11841;49.368;20.962;2023-05-24T05:00:18;95514.75;;;14.22;100.00
23339;BME280;11841;49.368;20.962;2023-05-24T05:03:03;95513.81;;;14.28;100.00
23339;BME280;11841;49.368;20.962;2023-05-24T05:05:49;95526.91;;;14.30;100.00
23339;BME280;11841;49.368;20.962;2023-05-24T05:08:35;95512.50;;;14.31;100.00
23339;BME280;11841;49.368;20.962;2023-05-24T05:11:20;95524.56;;;14.33;100.00
23339;BME280;11841;49.368;20.962;2023-05-24T05:14:06;95524.00;;;14.31;100.00
23339;BME280;11841;49.368;20.962;2023-05-24T05:16:55;95526.66;;;14.31;100.00
23339;BME280;11841;49.368;20.962;2023-05-24T05:19:41;95526.75;;;14.36;100.00
23339;BME280;11841;49.368;20.962;2023-05-24T05:22:26;95528.34;;;14.37;100.00
23339;BME280;11841;49.368;20.962;2023-05-24T05:25:14;95530.47;;;14.35;100.00
23339;BME280;11841;49.368;20.962;2023-05-24T05:27:59;95532.56;;;14.33;100.00
23339;BME280;11841;49.368;20.962;2023-05-24T05:30:44;95536.75;;;14.29;100.00
23339;BME280;11841;49.368;20.962;2023-05-24T05:33:31;95542.41;;;14.33;100.00
23339;BME280;11841;49.368;20.962;2023-05-24T05:36:17;95539.19;;;14.31;100.00
23339;BME280;11841;49.368;20.962;2023-05-24T05:39:02;95541.53;;;14.27;100.00
23339;BME280;11841;49.368;20.962;2023-05-24T05:41:47;95544.84;;;14.34;100.00
23339;BME280;11841;49.368;20.962;2023-05-24T05:44:33;95548.31;;;14.35;100.00
23339;BME280;11841;49.368;20.962;2023-05-24T05:47:18;95551.31;;;14.38;100.00
23339;BME280;11841;49.368;20.962;2023-05-24T05:50:03;95553.88;;;14.50;100.00
23339;BME280;11841;49.368;20.962;2023-05-24T05:52:49;95555.34;;;14.58;100.00
23339;BME280;11841;49.368;20.962;2023-05-24T05:55:34;95559.03;;;14.57;100.00
23339;BME280;11841;49.368;20.962;2023-05-24T05:58:20;95560.56;;;14.52;100.00
23339;BME280;11841;49.368;20.962;2023-05-24T06:01:05;95564.88;;;14.53;100.00
23339;BME280;11841;49.368;20.962;2023-05-24T06:03:50;95566.97;;;14.51;100.00
23339;BME280;11841;49.368;20.962;2023-05-24T06:06:36;95568.56;;;14.52;100.00
23339;BME280;11841;49.368;20.962;2023-05-24T06:09:22;95572.63;;;14.55;100.00
23339;BME280;11841;49.368;20.962;2023-05-24T06:12:07;95572.94;;;14.59;100.00
23339;BME280;11841;49.368;20.962;2023-05-24T06:14:53;95576.75;;;14.63;100.00
23339;BME280;11841;49.368;20.962;2023-05-24T06:17:43;95577.53;;;14.63;100.00
23339;BME280;11841;49.368;20.962;2023-05-24T06:20:31;95578.94;;;14.66;100.00
23339;BME280;11841;49.368;20.962;2023-05-24T06:23:17;95581.59;;;14.66;100.00
23339;BME280;11841;49.368;20.962;2023-05-24T06:26:03;95585.16;;;14.71;100.00
23339;BME280;11841;49.368;20.962;2023-05-24T06:28:48;95591.34;;;14.77;100.00
23339;BME280;11841;49.368;20.962;2023-05-24T06:31:33;95589.81;;;14.81;100.00
23339;BME280;11841;49.368;20.962;2023-05-24T06:34:19;95593.69;;;14.90;100.00
23339;BME280;11841;49.368;20.962;2023-05-24T06:37:07;95594.06;;;14.98;100.00
23339;BME280;11841;49.368;20.962;2023-05-24T06:39:54;95592.25;;;15.04;100.00
23339;BME280;11841;49.368;20.962;2023-05-24T06:42:39;95589.13;;;15.07;100.00
23339;BME280;11841;49.368;20.962;2023-05-24T06:45:25;95592.38;;;15.14;100.00
23339;BME280;11841;49.368;20.962;2023-05-24T06:48:11;95592.22;;;15.20;100.00
23339;BME280;11841;49.368;20.962;2023-05-24T06:50:56;95597.69;;;15.30;100.00
23339;BME280;11841;49.368;20.962;2023-05-24T06:53:41;95597.59;;;15.42;100.00
23339;BME280;11841;49.368;20.962;2023-05-24T06:56:27;95603.56;;;15.49;100.00
23339;BME280;11841;49.368;20.962;2023-05-24T06:59:13;95606.03;;;15.55;100.00
23339;BME280;11841;49.368;20.962;2023-05-24T07:01:58;95607.44;;;15.63;100.00
23339;BME280;11841;49.368;20.962;2023-05-24T07:04:47;95605.66;;;15.68;100.00
23339;BME280;11841;49.368;20.962;2023-05-24T07:07:32;95609.97;;;15.69;100.00
23339;BME280;11841;49.368;20.962;2023-05-24T07:10:18;95605.97;;;15.72;100.00
23339;BME280;11841;49.368;20.962;2023-05-24T07:13:03;95612.44;;;15.76;100.00
23339;BME280;11841;49.368;20.962;2023-05-24T07:15:48;95616.75;;;15.82;100.00
23339;BME280;11841;49.368;20.962;2023-05-24T07:18:33;95616.00;;;15.87;100.00
23339;BME280;11841;49.368;20.962;2023-05-24T07:21:19;95614.25;;;15.97;100.00
23339;BME280;11841;49.368;20.962;2023-05-24T07:24:04;95628.78;;;16.06;100.00
23339;BME280;11841;49.368;20.962;2023-05-24T07:26:50;95629.38;;;16.13;100.00
23339;BME280;11841;49.368;20.962;2023-05-24T07:29:37;95627.31;;;16.20;100.00
23339;BME280;11841;49.368;20.962;2023-05-24T07:32:23;95632.19;;;16.28;100.00
23339;BME280;11841;49.368;20.962;2023-05-24T07:35:10;95631.44;;;16.33;100.00
23339;BME280;11841;49.368;20.962;2023-05-24T07:37:59;95630.69;;;16.37;100.00
23339;BME280;11841;49.368;20.962;2023-05-24T07:40:44;95630.47;;;16.44;100.00
23339;BME280;11841;49.368;20.962;2023-05-24T07:43:29;95629.72;;;16.48;100.00
23339;BME280;11841;49.368;20.962;2023-05-24T07:46:15;95636.75;;;16.54;100.00
23339;BME280;11841;49.368;20.962;2023-05-24T07:49:00;95637.84;;;16.58;100.00
23339;BME280;11841;49.368;20.962;2023-05-24T07:51:45;95648.59;;;16.63;100.00
23339;BME280;11841;49.368;20.962;2023-05-24T07:54:31;95654.50;;;16.65;100.00
23339;BME280;11841;49.368;20.962;2023-05-24T07:57:16;95649.66;;;16.62;100.00
23339;BME280;11841;49.368;20.962;2023-05-24T08:00:01;95650.44;;;16.63;100.00
23339;BME280;11841;49.368;20.962;2023-05-24T08:02:54;95655.22;;;16.56;100.00
23339;BME280;11841;49.368;20.962;2023-05-24T08:05:39;95654.38;;;16.50;100.00
23339;BME280;11841;49.368;20.962;2023-05-24T08:08:25;95661.28;;;16.46;100.00
23339;BME280;11841;49.368;20.962;2023-05-24T08:11:10;95656.75;;;16.47;100.00
23339;BME280;11841;49.368;20.962;2023-05-24T08:13:56;95659.22;;;16.53;100.00
23339;BME280;11841;49.368;20.962;2023-05-24T08:16:41;95665.69;;;16.57;100.00
23339;BME280;11841;49.368;20.962;2023-05-24T08:19:26;95669.13;;;16.58;100.00
23339;BME280;11841;49.368;20.962;2023-05-24T08:22:12;95664.09;;;16.61;100.00
23339;BME280;11841;49.368;20.962;2023-05-24T08:24:57;95672.97;;;16.67;100.00
23339;BME280;11841;49.368;20.962;2023-05-24T08:27:43;95679.16;;;16.67;100.00
23339;BME280;11841;49.368;20.962;2023-05-24T08:30:28;95682.38;;;16.69;100.00
23339;BME280;11841;49.368;20.962;2023-05-24T08:33:14;95681.88;;;16.72;100.00
23339;BME280;11841;49.368;20.962;2023-05-24T08:36:00;95684.28;;;16.74;100.00
23339;BME280;11841;49.368;20.962;2023-05-24T08:38:45;95684.19;;;16.64;100.00
23339;BME280;11841;49.368;20.962;2023-05-24T08:41:31;95691.94;;;16.60;100.00
23339;BME280;11841;49.368;20.962;2023-05-24T08:44:22;95689.56;;;16.64;100.00
23339;BME280;11841;49.368;20.962;2023-05-24T08:47:09;95689.25;;;16.60;100.00
23339;BME280;11841;49.368;20.962;2023-05-24T08:49:54;95690.38;;;16.64;100.00
23339;BME280;11841;49.368;20.962;2023-05-24T08:52:42;95694.09;;;16.63;100.00
23339;BME280;11841;49.368;20.962;2023-05-24T08:55:30;95700.22;;;16.59;100.00
23339;BME280;11841;49.368;20.962;2023-05-24T08:58:18;95699.97;;;16.60;100.00
23339;BME280;11841;49.368;20.962;2023-05-24T09:01:03;95709.63;;;16.66;100.00
23339;BME280;11841;49.368;20.962;2023-05-24T09:03:52;95706.50;;;16.74;100.00
23339;BME280;11841;49.368;20.962;2023-05-24T09:06:37;95707.31;;;16.75;100.00
23339;BME280;11841;49.368;20.962;2023-05-24T09:09:26;95709.28;;;16.84;100.00
23339;BME280;11841;49.368;20.962;2023-05-24T09:12:14;95719.47;;;16.87;100.00
23339;BME280;11841;49.368;20.962;2023-05-24T09:15:21;95713.84;;;16.89;100.00
23339;BME280;11841;49.368;20.962;2023-05-24T09:18:07;95714.16;;;16.92;100.00
23339;BME280;11841;49.368;20.962;2023-05-24T09:20:52;95715.00;;;16.98;100.00
23339;BME280;11841;49.368;20.962;2023-05-24T09:23:38;95715.56;;;17.00;100.00
23339;BME280;11841;49.368;20.962;2023-05-24T09:26:26;95724.16;;;17.07;100.00
23339;BME280;11841;49.368;20.962;2023-05-24T09:29:14;95718.56;;;17.09;100.00
23339;BME280;11841;49.368;20.962;2023-05-24T09:31:59;95724.13;;;17.02;100.00
23339;BME280;11841;49.368;20.962;2023-05-24T09:34:46;95721.22;;;17.04;100.00
23339;BME280;11841;49.368;20.962;2023-05-24T09:37:35;95730.91;;;17.10;100.00
23339;BME280;11841;49.368;20.962;2023-05-24T09:40:20;95739.22;;;17.13;100.00
23339;BME280;11841;49.368;20.962;2023-05-24T09:43:06;95738.44;;;17.18;100.00
23339;BME280;11841;49.368;20.962;2023-05-24T09:45:55;95734.66;;;17.09;100.00
23339;BME280;11841;49.368;20.962;2023-05-24T09:48:57;95735.66;;;17.03;100.00
23339;BME280;11841;49.368;20.962;2023-05-24T09:51:44;95737.53;;;17.02;100.00
23339;BME280;11841;49.368;20.962;2023-05-24T09:54:34;95740.72;;;16.99;100.00
23339;BME280;11841;49.368;20.962;2023-05-24T09:57:19;95751.66;;;16.92;100.00
23339;BME280;11841;49.368;20.962;2023-05-24T10:00:10;95751.66;;;16.92;99.58
23339;BME280;11841;49.368;20.962;2023-05-24T10:03:02;95760.53;;;16.98;100.00
23339;BME280;11841;49.368;20.962;2023-05-24T10:05:48;95745.06;;;17.05;99.47
23339;BME280;11841;49.368;20.962;2023-05-24T10:08:35;95748.22;;;17.02;98.52
23339;BME280;11841;49.368;20.962;2023-05-24T10:11:23;95743.44;;;17.04;97.49
23339;BME280;11841;49.368;20.962;2023-05-24T10:14:09;95749.59;;;17.05;96.54
23339;BME280;11841;49.368;20.962;2023-05-24T10:16:54;95756.28;;;17.02;96.36
23339;BME280;11841;49.368;20.962;2023-05-24T10:19:40;95755.47;;;17.02;96.23
23339;BME280;11841;49.368;20.962;2023-05-24T10:22:26;95755.75;;;17.00;95.08
23339;BME280;11841;49.368;20.962;2023-05-24T10:25:33;95749.59;;;17.05;95.65
23339;BME280;11841;49.368;20.962;2023-05-24T10:28:20;95758.78;;;17.14;95.11
23339;BME280;11841;49.368;20.962;2023-05-24T10:31:10;95762.00;;;17.16;94.40
23339;BME280;11841;49.368;20.962;2023-05-24T10:33:58;95758.78;;;17.14;94.15
23339;BME280;11841;49.368;20.962;2023-05-24T10:36:52;95757.69;;;17.10;93.92
23339;BME280;11841;49.368;20.962;2023-05-24T10:39:40;95762.53;;;17.13;94.19
23339;BME280;11841;49.368;20.962;2023-05-24T10:42:25;95764.16;;;17.14;93.99
23339;BME280;11841;49.368;20.962;2023-05-24T10:50:59;95770.59;;;17.18;93.26
23339;BME280;11841;49.368;20.962;2023-05-24T10:53:45;95784.56;;;17.20;93.82
23339;BME280;11841;49.368;20.962;2023-05-24T10:56:39;95783.72;;;17.19;93.32
23339;BME280;11841;49.368;20.962;2023-05-24T10:59:33;95776.78;;;17.18;93.02
23339;BME280;11841;49.368;20.962;2023-05-24T11:02:26;95779.72;;;17.17;93.30
23339;BME280;11841;49.368;20.962;2023-05-24T11:05:12;95774.66;;;17.20;93.67
23339;BME280;11841;49.368;20.962;2023-05-24T11:07:58;95781.38;;;17.28;95.54
23339;BME280;11841;49.368;20.962;2023-05-24T11:10:45;95784.63;;;17.30;93.22
23339;BME280;11841;49.368;20.962;2023-05-24T11:13:32;95783.78;;;17.24;93.13
23339;BME280;11841;49.368;20.962;2023-05-24T11:16:36;95779.28;;;17.30;93.62
23339;BME280;11841;49.368;20.962;2023-05-24T11:19:30;95773.69;;;17.36;94.55
23339;BME280;11841;49.368;20.962;2023-05-24T11:22:19;95781.09;;;17.56;94.75
23339;BME280;11841;49.368;20.962;2023-05-24T11:25:07;95786.00;;;17.69;93.83
23339;BME280;11841;49.368;20.962;2023-05-24T11:27:53;95796.78;;;17.74;92.78
23339;BME280;11841;49.368;20.962;2023-05-24T11:30:46;95796.50;;;17.75;92.21
23339;BME280;11841;49.368;20.962;2023-05-24T11:33:31;95798.91;;;17.72;91.45
23339;BME280;11841;49.368;20.962;2023-05-24T11:36:18;95797.28;;;17.71;91.08
23339;BME280;11841;49.368;20.962;2023-05-24T11:39:06;95793.28;;;17.73;91.25
23339;BME280;11841;49.368;20.962;2023-05-24T11:41:53;95791.97;;;17.76;90.43
23339;BME280;11841;49.368;20.962;2023-05-24T11:44:38;95797.88;;;17.78;90.31
23339;BME280;11841;49.368;20.962;2023-05-24T11:47:24;95792.50;;;17.78;90.63
23339;BME280;11841;49.368;20.962;2023-05-24T11:50:14;95789.28;;;17.76;89.20
23339;BME280;11841;49.368;20.962;2023-05-24T11:53:03;95788.16;;;17.72;89.35
23339;BME280;11841;49.368;20.962;2023-05-24T11:55:49;95783.34;;;17.69;88.97
23339;BME280;11841;49.368;20.962;2023-05-24T11:58:47;95789.22;;;17.66;89.33
23339;BME280;11841;49.368;20.962;2023-05-24T12:01:33;95782.47;;;17.63;88.92
23339;BME280;11841;49.368;20.962;2023-05-24T12:04:19;95786.78;;;17.64;88.84
23339;BME280;11841;49.368;20.962;2023-05-24T12:07:09;95785.97;;;17.64;88.94
23339;BME280;11841;49.368;20.962;2023-05-24T12:09:55;95790.56;;;17.68;89.31
23339;BME280;11841;49.368;20.962;2023-05-24T12:12:42;95789.19;;;17.61;89.08
23339;BME280;11841;49.368;20.962;2023-05-24T12:15:30;95787.03;;;17.58;90.37
23339;BME280;11841;49.368;20.962;2023-05-24T12:18:23;95788.09;;;17.62;90.88
23339;BME280;11841;49.368;20.962;2023-05-24T12:21:09;95781.94;;;17.61;91.12
23339;BME280;11841;49.368;20.962;2023-05-24T12:23:56;95777.94;;;17.64;90.68
23339;BME280;11841;49.368;20.962;2023-05-24T12:26:42;95777.19;;;17.73;90.46
23339;BME280;11841;49.368;20.962;2023-05-24T12:29:35;95778.25;;;17.72;89.81
23339;BME280;11841;49.368;20.962;2023-05-24T12:32:21;95780.69;;;17.74;89.88
23339;BME280;11841;49.368;20.962;2023-05-24T12:35:07;95772.63;;;17.74;89.95
23339;BME280;11841;49.368;20.962;2023-05-24T12:37:58;95771.81;;;17.73;89.17
23339;BME280;11841;49.368;20.962;2023-05-24T12:40:44;95773.16;;;17.71;90.07
23339;BME280;11841;49.368;20.962;2023-05-24T12:43:38;95779.59;;;17.75;89.93
23339;BME280;11841;49.368;20.962;2023-05-24T12:46:24;95779.59;;;17.75;90.09
23339;BME280;11841;49.368;20.962;2023-05-24T12:49:09;95778.00;;;17.74;90.25
23339;BME280;11841;49.368;20.962;2023-05-24T12:51:55;95779.06;;;17.73;89.96
23339;BME280;11841;49.368;20.962;2023-05-24T12:54:41;95776.84;;;17.65;90.41
23339;BME280;11841;49.368;20.962;2023-05-24T12:57:26;95784.84;;;17.55;91.06
23339;BME280;11841;49.368;20.962;2023-05-24T13:00:13;95795.81;;;17.53;92.10
23339;BME280;11841;49.368;20.962;2023-05-24T13:02:58;95794.75;;;17.23;92.84
23339;BME280;11841;49.368;20.962;2023-05-24T13:05:44;95799.44;;;17.06;94.74
23339;BME280;11841;49.368;20.962;2023-05-24T13:08:30;95797.22;;;16.98;95.38
23339;BME280;11841;49.368;20.962;2023-05-24T13:11:15;95795.06;;;16.95;95.80
23339;BME280;11841;49.368;20.962;2023-05-24T13:14:02;95786.22;;;16.94;95.73
23339;BME280;11841;49.368;20.962;2023-05-24T13:16:48;95794.44;;;16.87;96.33
23339;BME280;11841;49.368;20.962;2023-05-24T13:19:33;95790.41;;;16.85;96.81
23339;BME280;11841;49.368;20.962;2023-05-24T13:22:19;95787.53;;;16.92;96.62
23339;BME280;11841;49.368;20.962;2023-05-24T13:25:05;95801.06;;;17.07;96.98
23339;BME280;11841;49.368;20.962;2023-05-24T13:27:50;95806.50;;;17.17;95.31
23339;BME280;11841;49.368;20.962;2023-05-24T13:30:36;95810.22;;;17.16;94.52
23339;BME280;11841;49.368;20.962;2023-05-24T13:33:22;95800.63;;;17.20;94.87
23339;BME280;11841;49.368;20.962;2023-05-24T13:36:08;95809.75;;;17.19;93.85
23339;BME280;11841;49.368;20.962;2023-05-24T13:38:53;95811.56;;;17.13;94.15
23339;BME280;11841;49.368;20.962;2023-05-24T13:41:57;95808.03;;;17.08;93.80
23339;BME280;11841;49.368;20.962;2023-05-24T13:44:45;95808.75;;;16.98;94.04
23339;BME280;11841;49.368;20.962;2023-05-24T13:47:30;95810.66;;;17.03;95.49
23339;BME280;11841;49.368;20.962;2023-05-24T13:50:24;95813.06;;;17.04;94.04
23339;BME280;11841;49.368;20.962;2023-05-24T13:53:10;95809.53;;;16.99;93.70
23339;BME280;11841;49.368;20.962;2023-05-24T13:55:55;95807.63;;;16.94;94.00
23339;BME280;11841;49.368;20.962;2023-05-24T13:58:41;95813.19;;;16.87;93.87
23339;BME280;11841;49.368;20.962;2023-05-24T14:01:27;95814.50;;;16.85;94.36
23339;BME280;11841;49.368;20.962;2023-05-24T14:04:12;95820.34;;;16.82;94.12
23339;BME280;11841;49.368;20.962;2023-05-24T14:06:58;95828.84;;;16.74;94.61
23339;BME280;11841;49.368;20.962;2023-05-24T14:09:43;95823.44;;;16.69;94.89
23339;BME280;11841;49.368;20.962;2023-05-24T14:12:28;95824.00;;;16.71;95.80
23339;BME280;11841;49.368;20.962;2023-05-24T14:15:13;95833.91;;;16.70;95.61
23339;BME280;11841;49.368;20.962;2023-05-24T14:17:59;95833.59;;;16.67;95.91
23339;BME280;11841;49.368;20.962;2023-05-24T14:20:45;95838.31;;;16.60;95.68
23339;BME280;11841;49.368;20.962;2023-05-24T14:23:31;95843.88;;;16.53;96.25
23339;BME280;11841;49.368;20.962;2023-05-24T14:26:17;95836.09;;;16.52;96.46
23339;BME280;11841;49.368;20.962;2023-05-24T14:29:03;95834.25;;;16.52;97.00
23339;BME280;11841;49.368;20.962;2023-05-24T14:31:48;95846.25;;;16.50;96.73
23339;BME280;11841;49.368;20.962;2023-05-24T14:34:34;95854.28;;;16.50;97.29